sensor_id;sensor_type;location;lat;lon;timestamp;pressure;altitude;pressure_sealevel;temperature;humidity
58473;BME280;44775;51.564;5.460;2023-05-09T00:00:25;101493.03;;;13.51;100.00
58473;BME280;44775;51.564;5.460;2023-05-09T00:02:50;101489.84;;;13.56;100.00
58473;BME280;44775;51.564;5.460;2023-05-09T00:05:16;101493.03;;;13.51;100.00
58473;BME280;44775;51.564;5.460;2023-05-09T00:07:41;101482.84;;;13.46;100.00
58473;BME280;44775;51.564;5.460;2023-05-09T00:10:07;101477.47;;;13.46;100.00
58473;BME280;44775;51.564;5.460;2023-05-09T00:12:32;101481.31;;;13.44;100.00
58473;BME280;44775;51.564;5.460;2023-05-09T00:14:57;101472.25;;;13.45;100.00
58473;BME280;44775;51.564;5.460;2023-05-09T00:17:23;101476.13;;;13.42;100.00
58473;BME280;44775;51.564;5.460;2023-05-09T00:19:49;101477.81;;;13.43;100.00
58473;BME280;44775;51.564;5.460;2023-05-09T00:22:16;101477.47;;;13.46;100.00
58473;BME280;44775;51.564;5.460;2023-05-09T00:24:42;101476.44;;;13.48;100.00
58473;BME280;44775;51.564;5.460;2023-05-09T00:27:07;101473.91;;;13.46;100.00
58473;BME280;44775;51.564;5.460;2023-05-09T00:29:32;101470.06;;;13.49;100.00
58473;BME280;44775;51.564;5.460;2023-05-09T00:31:57;101464.69;;;13.49;100.00
58473;BME280;44775;51.564;5.460;2023-05-09T00:34:23;101457.66;;;13.48;100.00
58473;BME280;44775;51.564;5.460;2023-05-09T00:36:48;101460.50;;;13.46;100.00
58473;BME280;44775;51.564;5.460;2023-05-09T00:39:14;101459.00;;;13.43;100.00
58473;BME280;44775;51.564;5.460;2023-05-09T00:41:40;101443.91;;;13.42;100.00
58473;BME280;44775;51.564;5.460;2023-05-09T00:44:05;101458.81;;;13.45;100.00
58473;BME280;44775;51.564;5.460;2023-05-09T00:46:31;101436.19;;;13.39;100.00
58473;BME280;44775;51.564;5.460;2023-05-09T00:48:56;101446.25;;;13.45;100.00
58473;BME280;44775;51.564;5.460;2023-05-09T00:51:22;101452.63;;;13.44;100.00
58473;BME280;44775;51.564;5.460;2023-05-09T00:53:47;101456.00;;;13.46;100.00
58473;BME280;44775;51.564;5.460;2023-05-09T00:56:13;101454.63;;;13.51;100.00
58473;BME280;44775;51.564;5.460;2023-05-09T00:58:39;101436.31;;;13.46;100.00
58473;BME280;44775;51.564;5.460;2023-05-09T01:01:05;101443.22;;;13.49;100.00
58473;BME280;44775;51.564;5.460;2023-05-09T01:03:31;101437.84;;;13.49;100.00
58473;BME280;44775;51.564;5.460;2023-05-09T01:06:05;101435.81;;;13.51;100.00
58473;BME280;44775;51.564;5.460;2023-05-09T01:11:12;101430.63;;;13.49;100.00
58473;BME280;44775;51.564;5.460;2023-05-09T01:13:48;101419.03;;;13.49;100.00
58473;BME280;44775;51.564;5.460;2023-05-09T01:19:09;101408.50;;;13.47;100.00
58473;BME280;44775;51.564;5.460;2023-05-09T01:21:39;101412.84;;;13.48;100.00
58473;BME280;44775;51.564;5.460;2023-05-09T01:29:47;101391.72;;;13.45;100.00
58473;BME280;44775;51.564;5.460;2023-05-09T01:32:19;101392.53;;;13.45;100.00
58473;BME280;44775;51.564;5.460;2023-05-09T01:34:48;101386.53;;;13.43;100.00
58473;BME280;44775;51.564;5.460;2023-05-09T01:37:17;101386.34;;;13.45;100.00
58473;BME280;44775;51.564;5.460;2023-05-09T01:39:47;101388.00;;;13.46;100.00
58473;BME280;44775;51.564;5.460;2023-05-09T01:42:15;101384.66;;;13.44;100.00
58473;BME280;44775;51.564;5.460;2023-05-09T01:44:43;101389.03;;;13.45;100.00
58473;BME280;44775;51.564;5.460;2023-05-09T01:47:10;101376.63;;;13.44;100.00
58473;BME280;44775;51.564;5.460;2023-05-09T01:49:37;101376.78;;;13.42;100.00
58473;BME280;44775;51.564;5.460;2023-05-09T01:52:07;101362.88;;;13.39;100.00
58473;BME280;44775;51.564;5.460;2023-05-09T01:54:34;101357.69;;;13.37;100.00
58473;BME280;44775;51.564;5.460;2023-05-09T01:57:01;101353.50;;;13.35;100.00
58473;BME280;44775;51.564;5.460;2023-05-09T01:59:28;101354.69;;;13.32;100.00
58473;BME280;44775;51.564;5.460;2023-05-09T02:01:54;101355.03;;;13.29;100.00
58473;BME280;44775;51.564;5.460;2023-05-09T02:04:20;101358.38;;;13.31;100.00
58473;BME280;44775;51.564;5.460;2023-05-09T02:06:47;101355.88;;;13.30;100.00
58473;BME280;44775;51.564;5.460;2023-05-09T02:09:19;101346.97;;;13.21;100.00
58473;BME280;44775;51.564;5.460;2023-05-09T02:11:44;101353.53;;;13.27;100.00
58473;BME280;44775;51.564;5.460;2023-05-09T02:14:10;101348.50;;;13.23;100.00
58473;BME280;44775;51.564;5.460;2023-05-09T02:16:35;101350.84;;;13.18;100.00
58473;BME280;44775;51.564;5.460;2023-05-09T02:19:03;101345.00;;;13.15;100.00
58473;BME280;44775;51.564;5.460;2023-05-09T02:21:28;101346.50;;;13.17;100.00
58473;BME280;44775;51.564;5.460;2023-05-09T02:23:54;101347.19;;;13.11;100.00
58473;BME280;44775;51.564;5.460;2023-05-09T02:26:20;101351.53;;;13.12;100.00
58473;BME280;44775;51.564;5.460;2023-05-09T02:28:46;101358.09;;;13.10;100.00
58473;BME280;44775;51.564;5.460;2023-05-09T02:31:12;101360.78;;;13.10;100.00
58473;BME280;44775;51.564;5.460;2023-05-09T02:33:40;101355.56;;;13.08;100.00
58473;BME280;44775;51.564;5.460;2023-05-09T02:36:08;101356.41;;;13.09;100.00
58473;BME280;44775;51.564;5.460;2023-05-09T02:38:34;101352.41;;;13.05;100.00
58473;BME280;44775;51.564;5.460;2023-05-09T02:41:00;101362.13;;;13.06;100.00
58473;BME280;44775;51.564;5.460;2023-05-09T02:43:25;101355.75;;;13.07;100.00
58473;BME280;44775;51.564;5.460;2023-05-09T02:45:50;101350.72;;;13.04;100.00
58473;BME280;44775;51.564;5.460;2023-05-09T02:48:16;101342.00;;;13.02;100.00
58473;BME280;44775;51.564;5.460;2023-05-09T02:50:41;101336.34;;;12.96;100.00
58473;BME280;44775;51.564;5.460;2023-05-09T02:53:10;101342.34;;;12.98;100.00
58473;BME280;44775;51.564;5.460;2023-05-09T02:55:35;101333.66;;;12.96;100.00
58473;BME280;44775;51.564;5.460;2023-05-09T02:58:01;101324.59;;;12.97;100.00
58473;BME280;44775;51.564;5.460;2023-05-09T03:00:26;101331.31;;;12.93;100.00
58473;BME280;44775;51.564;5.460;2023-05-09T03:02:52;101325.94;;;12.93;100.00
58473;BME280;44775;51.564;5.460;2023-05-09T03:05:17;101319.91;;;12.91;100.00
58473;BME280;44775;51.564;5.460;2023-05-09T03:07:43;101319.06;;;12.91;100.00
58473;BME280;44775;51.564;5.460;2023-05-09T03:10:09;101317.41;;;12.90;100.00
58473;BME280;44775;51.564;5.460;2023-05-09T03:12:38;101316.59;;;12.89;100.00
58473;BME280;44775;51.564;5.460;2023-05-09T03:15:05;101311.56;;;12.86;100.00
58473;BME280;44775;51.564;5.460;2023-05-09T03:17:31;101311.38;;;12.88;100.00
58473;BME280;44775;51.564;5.460;2023-05-09T03:19:56;101307.66;;;12.89;100.00
58473;BME280;44775;51.564;5.460;2023-05-09T03:22:22;101305.00;;;12.89;100.00
58473;BME280;44775;51.564;5.460;2023-05-09T03:24:47;101299.97;;;12.86;100.00
58473;BME280;44775;51.564;5.460;2023-05-09T03:27:13;101303.03;;;12.83;100.00
58473;BME280;44775;51.564;5.460;2023-05-09T03:29:38;101303.19;;;12.81;100.00
58473;BME280;44775;51.564;5.460;2023-05-09T03:32:03;101301.50;;;12.80;100.00
58473;BME280;44775;51.564;5.460;2023-05-09T03:34:29;101301.03;;;12.76;100.00
58473;BME280;44775;51.564;5.460;2023-05-09T03:36:54;101306.38;;;12.76;100.00
58473;BME280;44775;51.564;5.460;2023-05-09T03:39:19;101302.00;;;12.75;100.00
58473;BME280;44775;51.564;5.460;2023-05-09T03:41:45;101294.34;;;12.72;100.00
58473;BME280;44775;51.564;5.460;2023-05-09T03:44:10;101288.81;;;12.66;100.00
58473;BME280;44775;51.564;5.460;2023-05-09T03:46:35;101287.81;;;12.67;100.00
58473;BME280;44775;51.564;5.460;2023-05-09T03:49:00;101291.31;;;12.67;100.00
58473;BME280;44775;51.564;5.460;2023-05-09T03:51:26;101291.13;;;12.69;100.00
58473;BME280;44775;51.564;5.460;2023-05-09T03:53:51;101278.25;;;12.64;100.00
58473;BME280;44775;51.564;5.460;2023-05-09T03:56:16;101275.06;;;12.61;100.00
58473;BME280;44775;51.564;5.460;2023-05-09T03:58:42;101281.75;;;12.65;100.00
58473;BME280;44775;51.564;5.460;2023-05-09T04:01:07;101277.41;;;12.64;100.00
58473;BME280;44775;51.564;5.460;2023-05-09T04:03:32;101275.06;;;12.61;100.00
58473;BME280;44775;51.564;5.460;2023-05-09T04:05:58;101275.75;;;12.63;100.00
58473;BME280;44775;51.564;5.460;2023-05-09T04:08:23;101275.75;;;12.63;100.00
58473;BME280;44775;51.564;5.460;2023-05-09T04:10:49;101268.00;;;12.68;100.00
58473;BME280;44775;51.564;5.460;2023-05-09T04:13:15;101267.72;;;12.63;100.00
58473;BME280;44775;51.564;5.460;2023-05-09T04:15:41;101248.94;;;12.63;100.00
58473;BME280;44775;51.564;5.460;2023-05-09T04:18:06;101254.94;;;12.65;100.00
58473;BME280;44775;51.564;5.460;2023-05-09T04:20:31;101248.75;;;12.64;100.00
58473;BME280;44775;51.564;5.460;2023-05-09T04:22:57;101253.28;;;12.64;100.00
58473;BME280;44775;51.564;5.460;2023-05-09T04:25:23;101245.44;;;12.62;100.00
58473;BME280;44775;51.564;5.460;2023-05-09T04:27:48;101252.13;;;12.66;100.00
58473;BME280;44775;51.564;5.460;2023-05-09T04:30:14;101251.09;;;12.67;100.00
58473;BME280;44775;51.564;5.460;2023-05-09T04:32:39;101251.59;;;12.71;100.00
58473;BME280;44775;51.564;5.460;2023-05-09T04:35:09;101249.38;;;12.74;100.00
58473;BME280;44775;51.564;5.460;2023-05-09T04:37:35;101247.38;;;12.76;100.00
58473;BME280;44775;51.564;5.460;2023-05-09T04:40:00;101246.69;;;12.83;100.00
58473;BME280;44775;51.564;5.460;2023-05-09T04:42:25;101242.47;;;12.88;100.00
58473;BME280;44775;51.564;5.460;2023-05-09T04:44:51;101241.47;;;12.89;100.00
58473;BME280;44775;51.564;5.460;2023-05-09T04:47:16;101243.63;;;12.94;100.00
58473;BME280;44775;51.564;5.460;2023-05-09T04:49:41;101232.34;;;12.98;100.00
58473;BME280;44775;51.564;5.460;2023-05-09T04:52:07;101229.34;;;13.02;100.00
58473;BME280;44775;51.564;5.460;2023-05-09T04:54:32;101236.00;;;13.06;100.00
58473;BME280;44775;51.564;5.460;2023-05-09T04:56:57;101234.31;;;13.13;100.00
58473;BME280;44775;51.564;5.460;2023-05-09T04:59:23;101227.41;;;13.18;100.00
58473;BME280;44775;51.564;5.460;2023-05-09T05:01:48;101213.97;;;13.18;100.00
58473;BME280;44775;51.564;5.460;2023-05-09T05:04:14;101225.84;;;13.32;100.00
58473;BME280;44775;51.564;5.460;2023-05-09T05:06:39;101219.63;;;13.32;100.00
58473;BME280;44775;51.564;5.460;2023-05-09T05:09:04;101210.69;;;13.39;100.00
58473;BME280;44775;51.564;5.460;2023-05-09T05:11:30;101204.97;;;13.42;100.00
58473;BME280;44775;51.564;5.460;2023-05-09T05:13:55;101199.56;;;13.51;100.00
58473;BME280;44775;51.564;5.460;2023-05-09T05:16:20;101186.84;;;13.44;100.00
58473;BME280;44775;51.564;5.460;2023-05-09T05:18:46;101191.31;;;13.52;100.00
58473;BME280;44775;51.564;5.460;2023-05-09T05:21:11;101188.09;;;13.57;100.00
58473;BME280;44775;51.564;5.460;2023-05-09T05:23:36;101183.38;;;13.59;100.00
58473;BME280;44775;51.564;5.460;2023-05-09T05:26:02;101178.47;;;13.62;100.00
58473;BME280;44775;51.564;5.460;2023-05-09T05:28:27;101181.94;;;13.71;100.00
58473;BME280;44775;51.564;5.460;2023-05-09T05:30:53;101179.06;;;13.73;100.00
58473;BME280;44775;51.564;5.460;2023-05-09T05:33:18;101184.53;;;13.79;100.00
58473;BME280;44775;51.564;5.460;2023-05-09T05:35:43;101192.34;;;13.89;100.00
58473;BME280;44775;51.564;5.460;2023-05-09T05:38:09;101179.69;;;13.98;100.00
58473;BME280;44775;51.564;5.460;2023-05-09T05:40:34;101178.56;;;14.07;100.00
58473;BME280;44775;51.564;5.460;2023-05-09T05:42:59;101170.06;;;14.18;100.00
58473;BME280;44775;51.564;5.460;2023-05-09T05:45:25;101163.28;;;14.22;100.00
58473;BME280;44775;51.564;5.460;2023-05-09T05:47:50;101169.50;;;14.37;100.00
58473;BME280;44775;51.564;5.460;2023-05-09T05:50:16;101170.63;;;14.43;100.00
58473;BME280;44775;51.564;5.460;2023-05-09T05:52:41;101171.50;;;14.58;100.00
58473;BME280;44775;51.564;5.460;2023-05-09T05:55:07;101167.66;;;14.68;100.00
58473;BME280;44775;51.564;5.460;2023-05-09T05:57:33;101176.09;;;14.79;100.00
58473;BME280;44775;51.564;5.460;2023-05-09T05:59:59;101158.38;;;14.85;100.00
58473;BME280;44775;51.564;5.460;2023-05-09T06:02:25;101167.16;;;14.94;100.00
58473;BME280;44775;51.564;5.460;2023-05-09T06:04:50;101164.66;;;14.92;100.00
58473;BME280;44775;51.564;5.460;2023-05-09T06:07:15;101159.91;;;14.94;100.00
58473;BME280;44775;51.564;5.460;2023-05-09T06:09:41;101160.34;;;14.98;100.00
58473;BME280;44775;51.564;5.460;2023-05-09T06:12:06;101150.69;;;15.03;100.00
58473;BME280;44775;51.564;5.460;2023-05-09T06:14:31;101146.06;;;14.97;100.00
58473;BME280;44775;51.564;5.460;2023-05-09T06:16:57;101140.31;;;15.00;100.00
58473;BME280;44775;51.564;5.460;2023-05-09T06:19:23;101143.72;;;15.09;100.00
58473;BME280;44775;51.564;5.460;2023-05-09T06:21:48;101142.94;;;15.15;100.00
58473;BME280;44775;51.564;5.460;2023-05-09T06:24:13;101149.63;;;15.19;100.00
58473;BME280;44775;51.564;5.460;2023-05-09T06:26:38;101144.03;;;15.21;100.00
58473;BME280;44775;51.564;5.460;2023-05-09T06:29:04;101144.88;;;15.21;100.00
58473;BME280;44775;51.564;5.460;2023-05-09T06:31:33;101147.56;;;15.21;100.00
58473;BME280;44775;51.564;5.460;2023-05-09T06:34:02;101136.41;;;15.24;100.00
58473;BME280;44775;51.564;5.460;2023-05-09T06:36:28;101141.47;;;15.34;100.00
58473;BME280;44775;51.564;5.460;2023-05-09T06:38:53;101139.22;;;15.38;100.00
58473;BME280;44775;51.564;5.460;2023-05-09T06:41:18;101136.44;;;15.46;100.00
58473;BME280;44775;51.564;5.460;2023-05-09T06:43:45;101136.50;;;15.59;100.00
58473;BME280;44775;51.564;5.460;2023-05-09T06:46:10;101136.28;;;15.54;100.00
58473;BME280;44775;51.564;5.460;2023-05-09T06:48:36;101133.19;;;15.57;100.00
58473;BME280;44775;51.564;5.460;2023-05-09T06:51:01;101131.84;;;15.68;100.00
58473;BME280;44775;51.564;5.460;2023-05-09T06:53:26;101129.44;;;15.73;100.00
58473;BME280;44775;51.564;5.460;2023-05-09T06:55:52;101123.19;;;15.72;100.00
58473;BME280;44775;51.564;5.460;2023-05-09T06:58:17;101127.44;;;15.88;100.00
58473;BME280;44775;51.564;5.460;2023-05-09T07:00:42;101122.94;;;15.95;100.00
58473;BME280;44775;51.564;5.460;2023-05-09T07:03:08;101119.41;;;15.95;100.00
58473;BME280;44775;51.564;5.460;2023-05-09T07:05:34;101109.41;;;15.89;100.00
58473;BME280;44775;51.564;5.460;2023-05-09T07:08:00;101104.59;;;16.12;100.00
58473;BME280;44775;51.564;5.460;2023-05-09T07:10:25;101113.16;;;16.22;100.00
58473;BME280;44775;51.564;5.460;2023-05-09T07:12:50;101109.66;;;16.28;100.00
58473;BME280;44775;51.564;5.460;2023-05-09T07:15:16;101104.91;;;16.31;100.00
58473;BME280;44775;51.564;5.460;2023-05-09T07:17:41;101106.16;;;16.35;100.00
58473;BME280;44775;51.564;5.460;2023-05-09T07:20:07;101106.09;;;16.21;100.00
58473;BME280;44775;51.564;5.460;2023-05-09T07:22:32;101105.22;;;16.14;100.00
58473;BME280;44775;51.564;5.460;2023-05-09T07:24:58;101093.97;;;16.04;100.00
58473;BME280;44775;51.564;5.460;2023-05-09T07:27:23;101099.66;;;15.88;100.00
58473;BME280;44775;51.564;5.460;2023-05-09T07:29:48;101096.22;;;16.00;100.00
58473;BME280;44775;51.564;5.460;2023-05-09T07:32:17;101101.09;;;15.84;100.00
58473;BME280;44775;51.564;5.460;2023-05-09T07:34:42;101092.75;;;15.78;100.00
58473;BME280;44775;51.564;5.460;2023-05-09T07:37:07;101092.75;;;15.78;100.00
58473;BME280;44775;51.564;5.460;2023-05-09T07:39:32;101087.94;;;15.67;100.00
58473;BME280;44775;51.564;5.460;2023-05-09T07:41:58;101084.94;;;15.62;100.00
58473;BME280;44775;51.564;5.460;2023-05-09T07:44:23;101089.06;;;15.58;100.00
58473;BME280;44775;51.564;5.460;2023-05-09T07:46:48;101086.56;;;15.56;100.00
58473;BME280;44775;51.564;5.460;2023-05-09T07:49:14;101078.97;;;15.39;100.00
58473;BME280;44775;51.564;5.460;2023-05-09T07:51:39;101081.19;;;15.35;100.00
58473;BME280;44775;51.564;5.460;2023-05-09T07:54:05;101087.72;;;15.19;100.00
58473;BME280;44775;51.564;5.460;2023-05-09T07:56:31;101081.63;;;14.89;100.00
58473;BME280;44775;51.564;5.460;2023-05-09T07:58:56;101079.09;;;14.87;100.00
58473;BME280;44775;51.564;5.460;2023-05-09T08:01:21;101077.88;;;14.69;100.00
58473;BME280;44775;51.564;5.460;2023-05-09T08:03:46;101061.00;;;14.60;100.00
58473;BME280;44775;51.564;5.460;2023-05-09T08:06:12;101063.97;;;14.65;100.00
58473;BME280;44775;51.564;5.460;2023-05-09T08:08:37;101055.19;;;14.56;100.00
58473;BME280;44775;51.564;5.460;2023-05-09T08:11:04;101049.44;;;14.45;100.00
58473;BME280;44775;51.564;5.460;2023-05-09T08:13:29;101046.28;;;14.56;100.00
58473;BME280;44775;51.564;5.460;2023-05-09T08:15:54;101036.25;;;14.50;100.00
58473;BME280;44775;51.564;5.460;2023-05-09T08:18:20;101042.19;;;14.60;100.00
58473;BME280;44775;51.564;5.460;2023-05-09T08:20:45;101036.47;;;14.48;100.00
58473;BME280;44775;51.564;5.460;2023-05-09T08:23:10;101019.66;;;14.46;100.00
58473;BME280;44775;51.564;5.460;2023-05-09T08:25:36;101036.75;;;14.53;100.00
58473;BME280;44775;51.564;5.460;2023-05-09T08:28:01;101024.66;;;14.49;100.00
58473;BME280;44775;51.564;5.460;2023-05-09T08:30:26;101027.47;;;14.56;100.00
58473;BME280;44775;51.564;5.460;2023-05-09T08:32:54;101023.13;;;14.55;100.00
58473;BME280;44775;51.564;5.460;2023-05-09T08:35:19;101015.38;;;14.67;100.00
58473;BME280;44775;51.564;5.460;2023-05-09T08:37:44;101017.22;;;14.87;100.00
58473;BME280;44775;51.564;5.460;2023-05-09T08:40:12;101018.47;;;14.85;100.00
58473;BME280;44775;51.564;5.460;2023-05-09T08:42:37;101025.75;;;14.91;100.00
58473;BME280;44775;51.564;5.460;2023-05-09T08:45:12;101023.03;;;14.91;100.00
58473;BME280;44775;51.564;5.460;2023-05-09T08:47:41;101020.03;;;15.01;100.00
58473;BME280;44775;51.564;5.460;2023-05-09T08:50:08;101011.47;;;14.91;100.00
58473;BME280;44775;51.564;5.460;2023-05-09T08:52:34;101015.81;;;14.92;100.00
58473;BME280;44775;51.564;5.460;2023-05-09T08:55:00;101004.16;;;14.84;100.00
58473;BME280;44775;51.564;5.460;2023-05-09T08:57:26;101008.97;;;14.89;100.00
58473;BME280;44775;51.564;5.460;2023-05-09T08:59:52;101007.38;;;14.73;100.00
58473;BME280;44775;51.564;5.460;2023-05-09T09:02:19;100996.75;;;14.65;100.00
58473;BME280;44775;51.564;5.460;2023-05-09T09:04:44;101007.75;;;14.70;100.00
58473;BME280;44775;51.564;5.460;2023-05-09T09:07:10;101005.56;;;14.80;100.00
58473;BME280;44775;51.564;5.460;2023-05-09T09:09:38;101003.75;;;14.87;100.00
58473;BME280;44775;51.564;5.460;2023-05-09T09:12:08;100999.41;;;14.86;100.00
58473;BME280;44775;51.564;5.460;2023-05-09T09:14:37;101002.34;;;14.92;100.00
58473;BME280;44775;51.564;5.460;2023-05-09T09:17:04;101003.66;;;14.96;100.00
58473;BME280;44775;51.564;5.460;2023-05-09T09:19:34;100990.13;;;14.89;100.00
58473;BME280;44775;51.564;5.460;2023-05-09T09:22:03;101000.47;;;14.85;100.00
58473;BME280;44775;51.564;5.460;2023-05-09T09:24:32;100992.75;;;14.61;100.00
58473;BME280;44775;51.564;5.460;2023-05-09T09:27:04;100995.84;;;14.58;100.00
58473;BME280;44775;51.564;5.460;2023-05-09T09:29:29;100987.78;;;14.43;100.00
58473;BME280;44775;51.564;5.460;2023-05-09T09:31:55;100981.50;;;14.36;100.00
58473;BME280;44775;51.564;5.460;2023-05-09T09:34:22;100989.88;;;14.48;100.00
58473;BME280;44775;51.564;5.460;2023-05-09T09:36:48;100982.59;;;14.41;100.00
58473;BME280;44775;51.564;5.460;2023-05-09T09:39:14;100980.47;;;14.37;100.00
58473;BME280;44775;51.564;5.460;2023-05-09T09:41:40;100970.53;;;14.37;100.00
58473;BME280;44775;51.564;5.460;2023-05-09T09:44:13;100972.72;;;14.27;100.00
58473;BME280;44775;51.564;5.460;2023-05-09T09:46:58;100970.16;;;14.40;100.00
58473;BME280;44775;51.564;5.460;2023-05-09T09:49:26;100963.41;;;14.45;100.00
58473;BME280;44775;51.564;5.460;2023-05-09T09:51:56;100957.72;;;14.54;100.00
58473;BME280;44775;51.564;5.460;2023-05-09T09:54:25;100966.47;;;14.41;100.00
58473;BME280;44775;51.564;5.460;2023-05-09T09:56:51;100965.88;;;14.46;100.00
58473;BME280;44775;51.564;5.460;2023-05-09T09:59:22;100963.66;;;14.50;100.00
58473;BME280;44775;51.564;5.460;2023-05-09T10:04:21;100958.72;;;14.68;100.00
58473;BME280;44775;51.564;5.460;2023-05-09T10:06:55;100957.53;;;14.99;100.00
58473;BME280;44775;51.564;5.460;2023-05-09T10:09:22;100955.22;;;14.96;100.00
58473;BME280;44775;51.564;5.460;2023-05-09T10:11:49;100949.38;;;14.92;100.00
58473;BME280;44775;51.564;5.460;2023-05-09T10:14:18;100949.69;;;15.04;100.00
58473;BME280;44775;51.564;5.460;2023-05-09T10:16:45;100943.41;;;14.97;100.00
58473;BME280;44775;51.564;5.460;2023-05-09T10:19:11;100939.31;;;15.01;100.00
58473;BME280;44775;51.564;5.460;2023-05-09T10:21:38;100957.56;;;15.05;100.00
58473;BME280;44775;51.564;5.460;2023-05-09T10:24:04;100950.84;;;14.95;100.00
58473;BME280;44775;51.564;5.460;2023-05-09T10:26:33;100932.75;;;14.82;100.00
58473;BME280;44775;51.564;5.460;2023-05-09T10:29:07;100942.41;;;14.76;100.00
58473;BME280;44775;51.564;5.460;2023-05-09T10:31:35;100940.75;;;14.75;100.00
58473;BME280;44775;51.564;5.460;2023-05-09T10:34:08;100936.78;;;14.71;100.00
58473;BME280;44775;51.564;5.460;2023-05-09T10:36:34;100934.63;;;14.60;100.00
58473;BME280;44775;51.564;5.460;2023-05-09T10:39:00;100931.81;;;14.68;100.00
58473;BME280;44775;51.564;5.460;2023-05-09T10:41:26;100931.41;;;14.71;100.00
58473;BME280;44775;51.564;5.460;2023-05-09T10:43:55;100920.47;;;14.73;100.00
58473;BME280;44775;51.564;5.460;2023-05-09T10:46:22;100892.84;;;14.64;100.00
58473;BME280;44775;51.564;5.460;2023-05-09T10:48:48;100919.88;;;14.77;100.00
58473;BME280;44775;51.564;5.460;2023-05-09T10:51:14;100887.34;;;14.51;100.00
58473;BME280;44775;51.564;5.460;2023-05-09T10:53:42;100910.28;;;14.68;100.00
58473;BME280;44775;51.564;5.460;2023-05-09T10:56:09;100899.03;;;14.58;100.00
58473;BME280;44775;51.564;5.460;2023-05-09T10:58:46;100904.44;;;14.64;100.00
58473;BME280;44775;51.564;5.460;2023-05-09T11:01:12;100882.91;;;14.58;100.00
58473;BME280;44775;51.564;5.460;2023-05-09T11:03:54;100891.69;;;14.73;100.00
58473;BME280;44775;51.564;5.460;2023-05-09T11:06:45;100904.38;;;14.79;100.00
58473;BME280;44775;51.564;5.460;2023-05-09T11:11:56;100893.00;;;14.56;100.00
58473;BME280;44775;51.564;5.460;2023-05-09T11:22:17;100879.84;;;14.46;100.00
58473;BME280;44775;51.564;5.460;2023-05-09T11:24:47;100884.16;;;14.62;100.00
58473;BME280;44775;51.564;5.460;2023-05-09T11:27:24;100884.72;;;14.57;100.00
58473;BME280;44775;51.564;5.460;2023-05-09T11:29:57;100878.53;;;14.35;100.00
58473;BME280;44775;51.564;5.460;2023-05-09T11:32:29;100876.72;;;14.43;100.00
58473;BME280;44775;51.564;5.460;2023-05-09T11:35:15;100866.09;;;14.34;100.00
58473;BME280;44775;51.564;5.460;2023-05-09T11:37:52;100871.88;;;14.31;100.00
58473;BME280;44775;51.564;5.460;2023-05-09T11:40:21;100867.69;;;14.29;100.00
58473;BME280;44775;51.564;5.460;2023-05-09T11:42:51;100854.78;;;14.17;100.00
58473;BME280;44775;51.564;5.460;2023-05-09T11:45:20;100852.00;;;14.32;100.00
58473;BME280;44775;51.564;5.460;2023-05-09T11:47:46;100856.13;;;14.28;100.00
58473;BME280;44775;51.564;5.460;2023-05-09T11:50:13;100848.75;;;14.15;100.00
58473;BME280;44775;51.564;5.460;2023-05-09T11:52:40;100852.72;;;14.20;100.00
58473;BME280;44775;51.564;5.460;2023-05-09T11:55:07;100846.84;;;14.09;100.00
58473;BME280;44775;51.564;5.460;2023-05-09T11:57:34;100840.78;;;14.01;100.00
58473;BME280;44775;51.564;5.460;2023-05-09T12:00:00;100853.78;;;14.04;100.00
58473;BME280;44775;51.564;5.460;2023-05-09T12:02:26;100840.44;;;14.10;100.00
58473;BME280;44775;51.564;5.460;2023-05-09T12:04:52;100832.94;;;14.06;100.00
58473;BME280;44775;51.564;5.460;2023-05-09T12:07:19;100831.78;;;13.93;100.00
58473;BME280;44775;51.564;5.460;2023-05-09T12:09:44;100822.22;;;13.84;100.00
58473;BME280;44775;51.564;5.460;2023-05-09T12:12:13;100833.41;;;13.88;100.00
58473;BME280;44775;51.564;5.460;2023-05-09T12:14:39;100838.91;;;14.01;100.00
58473;BME280;44775;51.564;5.460;2023-05-09T12:17:06;100830.13;;;13.92;100.00
58473;BME280;44775;51.564;5.460;2023-05-09T12:19:32;100833.91;;;13.98;100.00
58473;BME280;44775;51.564;5.460;2023-05-09T12:22:03;100823.72;;;13.93;100.00
58473;BME280;44775;51.564;5.460;2023-05-09T12:24:29;100822.72;;;13.94;100.00
58473;BME280;44775;51.564;5.460;2023-05-09T12:26:56;100827.72;;;13.98;100.00
58473;BME280;44775;51.564;5.460;2023-05-09T12:29:23;100819.38;;;13.92;100.00
58473;BME280;44775;51.564;5.460;2023-05-09T12:31:49;100816.06;;;13.90;100.00
58473;BME280;44775;51.564;5.460;2023-05-09T12:34:16;100812.34;;;13.91;100.00
58473;BME280;44775;51.564;5.460;2023-05-09T12:36:45;100812.88;;;14.02;100.00
58473;BME280;44775;51.564;5.460;2023-05-09T12:39:16;100813.16;;;14.13;100.00
58473;BME280;44775;51.564;5.460;2023-05-09T12:41:46;100807.94;;;14.05;100.00
58473;BME280;44775;51.564;5.460;2023-05-09T12:44:21;100804.50;;;14.11;100.00
58473;BME280;44775;51.564;5.460;2023-05-09T12:46:59;100794.56;;;14.12;100.00
58473;BME280;44775;51.564;5.460;2023-05-09T12:49:25;100800.91;;;14.04;100.00
58473;BME280;44775;51.564;5.460;2023-05-09T12:51:51;100793.25;;;14.01;100.00
58473;BME280;44775;51.564;5.460;2023-05-09T12:54:27;100795.47;;;13.98;100.00
58473;BME280;44775;51.564;5.460;2023-05-09T12:56:53;100797.13;;;13.99;100.00
58473;BME280;44775;51.564;5.460;2023-05-09T12:59:23;100792.66;;;14.06;100.00
58473;BME280;44775;51.564;5.460;2023-05-09T13:01:51;100784.34;;;14.01;100.00